Cherry Capital Airport
KTVC : now visible

Airfield :











YOU CAN JOIN US ON...

 
LOGIN :

Register | Disclaimer

   EN    FR    IT 

 









Legend :    VFR   Marginal VFR   IFR   Intensive IFR   Very Intensive IFR
Visi :
Ceiling :
>= 8 km
>= 3000ft
5 to 8 km
1000 to 3000 ft
1500m to 5 km
500 to 1000 ft
800 to 1500m
200 to 500 ft
< 800m
< 200 ft
Symbols :   Thunderstorms  Fog  Heavy snow  Heavy precipitations  Wind > 20 kt






- Airport Elevation : 624 ft
- IATA code : TVC


KTVC - Cherry Capital

CURRENT METAR :
  • 280153Z 29003KT 10SM FEW048 SCT100 SCT200 23/19 A2991 RMK AO2 SLP123 LAST T02330194

EXPIRED METARs :
  • 280053Z 00000KT 10SM SCT048 BKN095 BKN200 24/19 A2990 RMK AO2 SLP122 T02440189
  • 272353Z 33009KT 10SM FEW050 BKN080 BKN200 26/19 A2991 RMK AO2 TSB20E45 SLP124 60006 T02610194 10322 20239 53003
  • 272326Z 00000KT 10SM TS BKN065CB BKN080 BKN200 24/19 A2991 RMK AO2 TSB20 OCNL LTGICCG W TS W MOV NE T02440194

TAF KTVC
Valid from the 28 at 00:00 until the 29 at 00:00 UTC


272335Z 2800/2824 00000KT P6SM VCSH SCT100 OVC250
FM280200 00000KT P6SM BKN250
FM281200 00000KT 5SM -SHRA SCT028 OVC040
FM281500 00000KT 6SM -SHRA OVC026
FM281600 VRB03KT 6SM -SHRA OVC017
KZMP FIR / North America



MET'MAP, your aeronautical weather chart ! - Copyright ORBIFLY December 2007 - Disclaimer

ORBIFLY MET'MAP TEAM :

Programming & Development : Alexandra Zaïnal
Concept & original design : Baudouin d'Aumeries
Assistance for programming : Marc-Olivier Méhu
Technical & hardware support : Manuel Goepfert

Contact : metmap@orbifly.com




SOURCES & CREDITS :

   NOAA       Earth
Advisory